createdAt,value
2022-08-01T00:00:08.978Z,36.50
2022-08-01T00:02:37.506Z,36.40
2022-08-01T00:05:06.971Z,36.50
2022-08-01T00:07:34.738Z,36.40
2022-08-01T00:10:02.246Z,36.00
2022-08-01T00:12:29.026Z,36.10
2022-08-01T00:14:55.790Z,36.00
2022-08-01T00:17:22.535Z,36.10
2022-08-01T00:19:49.372Z,36.10
2022-08-01T00:22:16.222Z,36.10
2022-08-01T00:24:43.017Z,36.00
2022-08-01T00:27:09.805Z,36.00
2022-08-01T00:30:09.872Z,36.00
2022-08-01T00:32:23.309Z,36.00
2022-08-01T00:34:51.174Z,36.00
2022-08-01T00:37:18.260Z,36.00
2022-08-01T00:39:45.033Z,36.10
2022-08-01T00:42:13.328Z,36.30
2022-08-01T00:44:40.789Z,35.90
2022-08-01T00:47:09.705Z,36.10
2022-08-01T00:49:37.014Z,36.10
2022-08-01T00:52:06.352Z,35.80
2022-08-01T00:54:33.850Z,36.00
2022-08-01T00:57:01.040Z,36.10
2022-08-01T00:59:28.203Z,36.30
2022-08-01T01:01:55.414Z,36.40
2022-08-01T01:04:23.064Z,36.30
2022-08-01T01:07:14.557Z,37.10
2022-08-01T01:09:53.226Z,36.30
2022-08-01T01:12:33.048Z,36.20
2022-08-01T01:15:19.857Z,36.30
2022-08-01T01:17:55.756Z,36.10
2022-08-01T01:20:28.588Z,36.50
2022-08-01T01:23:06.282Z,36.70
2022-08-01T01:25:47.646Z,36.50
2022-08-01T01:28:34.506Z,36.60
2022-08-01T01:31:03.474Z,36.50
2022-08-01T01:33:34.336Z,36.50
2022-08-01T01:36:11.350Z,36.40
2022-08-01T01:38:43.679Z,36.40
2022-08-01T01:41:13.712Z,36.60
2022-08-01T01:43:41.255Z,36.40
2022-08-01T01:46:10.037Z,36.60
2022-08-01T01:48:38.506Z,36.80
2022-08-01T01:51:05.957Z,36.70
2022-08-01T01:53:35.903Z,36.50
2022-08-01T01:56:03.915Z,36.40
2022-08-01T01:58:32.901Z,36.40
2022-08-01T02:01:03.707Z,36.40
2022-08-01T02:03:32.597Z,36.70
2022-08-01T02:06:02.459Z,36.30
2022-08-01T02:08:31.741Z,35.80
2022-08-01T02:11:18.084Z,35.70
2022-08-01T02:13:49.031Z,35.60
2022-08-01T02:16:17.969Z,35.60
2022-08-01T02:18:44.969Z,35.50
2022-08-01T02:21:17.137Z,35.30
2022-08-01T02:23:45.254Z,35.20
2022-08-01T02:26:16.164Z,35.40
2022-08-01T02:28:58.211Z,35.40
2022-08-01T02:31:25.786Z,35.00
2022-08-01T02:34:03.328Z,35.00
2022-08-01T02:36:33.637Z,34.30
2022-08-01T02:39:04.411Z,34.30
2022-08-01T02:41:32.582Z,34.20
2022-08-01T02:44:03.016Z,34.10
2022-08-01T02:46:50.134Z,34.20
2022-08-01T02:49:20.351Z,34.10
2022-08-01T02:51:49.273Z,33.90
2022-08-01T02:54:19.444Z,34.10
2022-08-01T02:56:49.328Z,34.40
2022-08-01T02:59:22.109Z,34.40
2022-08-01T03:01:50.950Z,34.40
2022-08-01T03:04:19.622Z,34.40
2022-08-01T03:06:48.006Z,34.30
2022-08-01T03:09:16.647Z,34.20
2022-08-01T03:11:44.929Z,34.40
2022-08-01T03:14:13.354Z,34.20
2022-08-01T03:16:42.900Z,34.50
2022-08-01T03:19:11.982Z,34.40
2022-08-01T03:21:41.746Z,34.80
2022-08-01T03:24:10.790Z,34.70
2022-08-01T03:26:39.252Z,35.00
2022-08-01T03:29:18.293Z,35.00
2022-08-01T03:31:46.470Z,35.10
2022-08-01T03:34:13.687Z,35.20
2022-08-01T03:36:50.738Z,35.20
2022-08-01T03:39:20.174Z,35.40
2022-08-01T03:41:56.663Z,35.60
2022-08-01T03:44:27.490Z,36.50
2022-08-01T03:47:12.140Z,35.80
2022-08-01T03:49:44.196Z,36.00
2022-08-01T03:52:11.758Z,36.10
2022-08-01T03:54:44.489Z,36.40
2022-08-01T03:57:34.858Z,36.70
2022-08-01T03:59:59.937Z,36.70
2022-08-01T04:02:28.182Z,36.80
2022-08-01T04:04:55.607Z,36.80
2022-08-01T04:07:24.437Z,37.20
2022-08-01T04:09:51.769Z,37.20
2022-08-01T04:12:18.963Z,36.90
2022-08-01T04:14:46.181Z,36.80
2022-08-01T04:17:12.986Z,36.60
2022-08-01T04:19:40.011Z,36.50
2022-08-01T04:22:08.019Z,36.60
2022-08-01T04:24:37.379Z,36.30
2022-08-01T04:27:09.056Z,36.40
2022-08-01T04:29:37.376Z,36.40
2022-08-01T04:32:05.244Z,36.20
2022-08-01T04:34:34.242Z,36.40
2022-08-01T04:37:02.066Z,36.40
2022-08-01T04:39:32.840Z,36.30
2022-08-01T04:42:17.780Z,36.10
2022-08-01T04:44:53.155Z,36.30
2022-08-01T04:47:20.919Z,36.20
2022-08-01T04:49:49.304Z,36.10
2022-08-01T04:52:22.984Z,36.60
2022-08-01T04:54:51.548Z,36.80
2022-08-01T04:57:18.318Z,36.10
2022-08-01T04:59:45.354Z,36.00
2022-08-01T05:02:14.860Z,35.90
2022-08-01T05:04:42.899Z,35.60
2022-08-01T05:07:10.409Z,35.50
2022-08-01T05:09:38.328Z,35.00
2022-08-01T05:12:06.994Z,35.80
2022-08-01T05:14:35.079Z,35.00
2022-08-01T05:17:04.903Z,35.00
2022-08-01T05:19:32.902Z,34.80
2022-08-01T05:22:05.864Z,34.70
2022-08-01T05:24:37.354Z,34.80
2022-08-01T05:27:08.903Z,34.40
2022-08-01T05:29:43.996Z,34.60
2022-08-01T05:32:11.858Z,34.30
2022-08-01T05:34:38.627Z,34.30
2022-08-01T05:37:05.535Z,34.40
2022-08-01T05:39:32.363Z,34.30
2022-08-01T05:41:59.114Z,34.30
2022-08-01T05:44:26.277Z,33.70
2022-08-01T05:46:53.082Z,33.60
2022-08-01T05:49:19.978Z,33.20
2022-08-01T05:51:46.839Z,32.50
2022-08-01T05:54:13.861Z,31.90
2022-08-01T05:56:40.734Z,30.90
2022-08-01T05:59:07.765Z,30.00
2022-08-01T06:01:34.784Z,29.70
2022-08-01T06:04:01.540Z,29.30
2022-08-01T06:06:28.330Z,28.70
2022-08-01T06:08:55.153Z,28.40
2022-08-01T06:11:21.901Z,28.20
2022-08-01T06:13:49.086Z,27.70
2022-08-01T06:16:16.735Z,27.30
2022-08-01T06:18:43.889Z,27.20
2022-08-01T06:21:10.596Z,26.40
2022-08-01T06:23:38.237Z,26.30
2022-08-01T06:26:05.056Z,26.10
2022-08-01T06:28:31.884Z,25.60
2022-08-01T06:31:00.119Z,25.30
2022-08-01T06:33:27.815Z,25.50
2022-08-01T06:35:54.966Z,25.60
2022-08-01T06:38:21.808Z,25.20
2022-08-01T06:40:48.629Z,24.50
2022-08-01T06:43:16.392Z,25.50
2022-08-01T06:45:43.517Z,25.20
2022-08-01T06:48:10.634Z,25.60
2022-08-01T06:50:37.476Z,25.70
2022-08-01T06:53:04.546Z,26.10
2022-08-01T06:55:31.804Z,26.30
2022-08-01T06:57:58.726Z,25.30
2022-08-01T07:00:26.885Z,25.20
2022-08-01T07:02:57.713Z,25.00
2022-08-01T07:05:24.678Z,24.80
2022-08-01T07:07:51.846Z,24.30
2022-08-01T07:10:18.921Z,24.20
2022-08-01T07:12:45.705Z,24.00
2022-08-01T07:15:13.026Z,23.70
2022-08-01T07:17:41.027Z,23.60
2022-08-01T07:20:12.461Z,23.50
2022-08-01T07:22:42.932Z,23.40
2022-08-01T07:25:10.384Z,23.40
2022-08-01T07:27:38.184Z,23.40
2022-08-01T07:30:06.114Z,23.00
2022-08-01T07:32:33.017Z,22.80
2022-08-01T07:35:00.399Z,22.50
2022-08-01T07:37:48.126Z,22.50
2022-08-01T07:40:14.313Z,22.00
2022-08-01T07:42:44.412Z,22.20
2022-08-01T07:45:12.713Z,21.70
2022-08-01T07:47:39.708Z,21.70
2022-08-01T07:50:07.475Z,21.80
2022-08-01T07:52:34.405Z,21.50
2022-08-01T07:55:01.208Z,21.50
2022-08-01T07:57:27.999Z,21.80
2022-08-01T07:59:54.868Z,21.50
2022-08-01T08:02:21.651Z,21.60
2022-08-01T08:04:49.189Z,21.20
2022-08-01T08:07:16.799Z,21.00
2022-08-01T08:09:43.660Z,20.70
2022-08-01T08:12:10.812Z,20.40
2022-08-01T08:14:37.588Z,20.30
2022-08-01T08:17:05.256Z,20.00
2022-08-01T08:19:38.370Z,19.30
2022-08-01T08:22:06.433Z,19.60
2022-08-01T08:24:33.557Z,19.20
2022-08-01T08:27:01.946Z,19.30
2022-08-01T08:29:30.881Z,19.00
2022-08-01T08:31:58.721Z,19.20
2022-08-01T08:34:27.883Z,19.50
2022-08-01T08:36:56.137Z,19.40
2022-08-01T08:39:23.749Z,18.90
2022-08-01T08:41:50.506Z,19.10
2022-08-01T08:44:18.470Z,19.10
2022-08-01T08:46:47.920Z,18.90
2022-08-01T08:49:18.888Z,18.50
2022-08-01T08:51:49.995Z,17.50
2022-08-01T08:54:19.275Z,17.90
2022-08-01T08:56:48.196Z,17.30
2022-08-01T08:59:15.275Z,17.30
2022-08-01T09:01:43.502Z,17.50
2022-08-01T09:04:11.258Z,17.20
2022-08-01T09:06:38.864Z,16.70
2022-08-01T09:09:06.564Z,17.00
2022-08-01T09:11:34.420Z,16.80
2022-08-01T09:14:24.749Z,16.90
2022-08-01T09:17:11.728Z,16.40
2022-08-01T09:19:42.446Z,16.80
2022-08-01T09:22:12.239Z,17.00
2022-08-01T09:24:41.001Z,17.20
2022-08-01T09:27:25.144Z,16.50
2022-08-01T09:30:00.956Z,16.70
2022-08-01T09:32:35.194Z,16.80
2022-08-01T09:35:36.290Z,16.60
2022-08-01T09:38:17.862Z,16.00
2022-08-01T09:40:55.568Z,16.80
2022-08-01T09:43:25.847Z,16.90
2022-08-01T09:45:55.153Z,17.20
2022-08-01T09:48:27.739Z,16.40
2022-08-01T09:50:56.329Z,16.20
2022-08-01T09:53:51.170Z,16.60
2022-08-01T09:56:18.496Z,16.40
2022-08-01T09:58:58.945Z,16.40
2022-08-01T10:01:36.627Z,16.90
2022-08-01T10:04:25.347Z,17.40
2022-08-01T10:07:04.317Z,17.20
2022-08-01T10:09:40.591Z,17.10
2022-08-01T10:12:15.741Z,16.70
2022-08-01T10:14:46.275Z,16.70
2022-08-01T10:17:19.643Z,16.10
2022-08-01T10:19:51.298Z,16.00
2022-08-01T10:22:23.541Z,16.10
2022-08-01T10:24:55.537Z,16.30
2022-08-01T10:27:36.366Z,16.80
2022-08-01T10:30:16.776Z,16.00
2022-08-01T10:32:50.577Z,15.50
2022-08-01T10:35:45.923Z,15.60
2022-08-01T10:38:06.361Z,15.60
2022-08-01T10:40:38.633Z,15.40
2022-08-01T10:43:07.683Z,15.00
2022-08-01T10:45:35.148Z,14.90
2022-08-01T10:48:12.626Z,14.80
2022-08-01T10:50:48.528Z,14.00
2022-08-01T10:53:24.100Z,13.60
2022-08-01T10:56:02.562Z,13.60
2022-08-01T10:58:42.744Z,13.80
2022-08-01T11:01:21.605Z,14.10
2022-08-01T11:04:01.485Z,14.90
2022-08-01T11:06:39.414Z,14.80
2022-08-01T11:09:35.390Z,14.90
2022-08-01T11:12:23.131Z,15.40
2022-08-01T11:15:02.714Z,16.00
2022-08-01T11:17:42.580Z,16.10
2022-08-01T11:20:15.478Z,16.30
2022-08-01T11:23:05.993Z,16.30
2022-08-01T11:26:04.683Z,16.60
2022-08-01T11:28:32.652Z,17.00
2022-08-01T11:31:11.395Z,17.10
2022-08-01T11:33:45.526Z,17.90
2022-08-01T11:36:14.839Z,18.30
2022-08-01T11:39:00.922Z,19.10
2022-08-01T11:41:38.748Z,20.50
2022-08-01T11:44:10.162Z,20.80
2022-08-01T11:47:00.521Z,21.80
2022-08-01T11:49:41.988Z,21.40
2022-08-01T11:52:10.230Z,21.80
2022-08-01T11:54:39.074Z,21.70
2022-08-01T11:57:15.543Z,22.00
2022-08-01T11:59:59.855Z,22.20
2022-08-01T12:02:33.563Z,22.30
2022-08-01T12:05:14.036Z,22.50
2022-08-01T12:07:43.437Z,22.20
2022-08-01T12:10:16.271Z,22.40
2022-08-01T12:12:49.715Z,22.70
2022-08-01T12:15:17.516Z,22.40
2022-08-01T12:17:47.041Z,22.20
2022-08-01T12:20:31.614Z,22.10
2022-08-01T12:23:02.532Z,22.00
2022-08-01T12:25:29.754Z,22.00
2022-08-01T12:28:01.531Z,22.10
2022-08-01T12:30:29.677Z,22.10
2022-08-01T12:32:56.968Z,22.10
2022-08-01T12:35:29.015Z,22.30
2022-08-01T12:37:58.692Z,21.70
2022-08-01T12:40:45.374Z,21.30
2022-08-01T12:43:26.737Z,21.90
2022-08-01T12:45:58.937Z,22.10
2022-08-01T12:48:26.561Z,22.20
2022-08-01T12:50:56.885Z,22.50
2022-08-01T12:53:23.820Z,22.10
2022-08-01T12:55:59.206Z,22.10
2022-08-01T12:58:34.723Z,22.10
2022-08-01T13:01:10.108Z,21.70
2022-08-01T13:03:38.432Z,21.60
2022-08-01T13:06:17.785Z,21.30
2022-08-01T13:08:45.401Z,20.70
2022-08-01T13:11:16.707Z,20.10
2022-08-01T13:13:49.688Z,20.10
2022-08-01T13:16:43.210Z,20.00
2022-08-01T13:19:17.047Z,19.90
2022-08-01T13:21:57.620Z,19.90
2022-08-01T13:24:33.595Z,19.80
2022-08-01T13:27:04.806Z,20.00
2022-08-01T13:29:42.611Z,20.10
2022-08-01T13:32:28.537Z,20.30
2022-08-01T13:35:09.148Z,20.00
2022-08-01T13:37:38.518Z,20.00
2022-08-01T13:40:07.062Z,20.20
2022-08-01T13:42:34.049Z,20.10
2022-08-01T13:45:00.791Z,22.50
2022-08-01T13:47:31.969Z,26.30
2022-08-01T13:50:03.799Z,29.10
2022-08-01T13:52:32.002Z,34.40
2022-08-01T13:54:59.529Z,38.50
2022-08-01T13:57:26.429Z,42.00
2022-08-01T14:00:06.589Z,50.70
2022-08-01T14:02:33.427Z,52.00
2022-08-01T14:05:00.214Z,55.20
2022-08-01T14:07:27.004Z,60.00
2022-08-01T14:10:04.393Z,68.10
2022-08-01T14:12:42.785Z,69.80
2022-08-01T14:15:12.672Z,71.40
2022-08-01T14:17:40.512Z,75.90
2022-08-01T14:20:14.884Z,82.30
2022-08-01T14:22:41.700Z,87.90
2022-08-01T14:25:09.058Z,91.20
2022-08-01T14:27:37.509Z,93.10
2022-08-01T14:30:05.678Z,93.80
2022-08-01T14:32:34.262Z,93.60
2022-08-01T14:35:02.771Z,93.40
2022-08-01T14:37:31.743Z,93.00
2022-08-01T14:40:06.154Z,93.30
2022-08-01T14:42:34.831Z,93.60
2022-08-01T14:45:01.567Z,95.90
2022-08-01T14:47:28.323Z,95.00
2022-08-01T14:49:55.082Z,94.20
2022-08-01T14:52:22.652Z,95.10
2022-08-01T14:54:49.564Z,95.30
2022-08-01T14:57:19.163Z,94.00
2022-08-01T14:59:46.119Z,92.10
2022-08-01T15:02:14.457Z,86.60
2022-08-01T15:04:41.220Z,90.10
2022-08-01T15:07:07.996Z,90.50
2022-08-01T15:09:34.728Z,87.50
2022-08-01T15:12:01.473Z,79.60
2022-08-01T15:14:46.976Z,75.80
2022-08-01T15:17:13.774Z,70.50
2022-08-01T15:19:42.107Z,71.00
2022-08-01T15:22:09.913Z,70.40
2022-08-01T15:24:36.820Z,69.10
2022-08-01T15:27:04.201Z,73.70
2022-08-01T15:29:31.255Z,80.40
2022-08-01T15:31:58.041Z,85.50
2022-08-01T15:34:27.518Z,84.70
2022-08-01T15:36:54.317Z,83.00
2022-08-01T15:39:21.238Z,81.30
2022-08-01T15:41:48.249Z,76.90
2022-08-01T15:44:15.267Z,74.20
2022-08-01T15:46:42.018Z,73.80
2022-08-01T15:49:09.081Z,76.80
2022-08-01T15:51:35.852Z,76.60
2022-08-01T15:54:03.709Z,76.70
2022-08-01T15:56:31.043Z,76.60
2022-08-01T15:58:58.082Z,76.70
2022-08-01T16:01:26.992Z,79.00
2022-08-01T16:03:54.632Z,74.90
2022-08-01T16:06:21.712Z,70.40
2022-08-01T16:08:48.578Z,64.30
2022-08-01T16:11:15.322Z,60.30
2022-08-01T16:13:42.209Z,59.60
2022-08-01T16:16:09.371Z,60.00
2022-08-01T16:18:36.612Z,57.20
2022-08-01T16:21:04.002Z,56.40
2022-08-01T16:23:31.526Z,54.30
2022-08-01T16:25:58.293Z,51.50
2022-08-01T16:28:25.236Z,51.40
2022-08-01T16:31:10.000Z,49.70
2022-08-01T16:33:50.358Z,50.50
2022-08-01T16:36:23.348Z,51.50
2022-08-01T16:38:51.845Z,56.30
2022-08-01T16:41:20.291Z,52.80
2022-08-01T16:43:53.570Z,50.60
2022-08-01T16:46:22.332Z,53.20
2022-08-01T16:48:49.208Z,55.10
2022-08-01T16:51:16.074Z,57.40
2022-08-01T16:53:42.958Z,60.00
2022-08-01T16:56:09.675Z,61.60
2022-08-01T16:58:36.604Z,61.00
2022-08-01T17:02:00.872Z,60.00
2022-08-01T17:03:53.805Z,58.10
2022-08-01T17:06:22.671Z,59.30
2022-08-01T17:08:50.099Z,61.00
2022-08-01T17:11:17.037Z,61.80
2022-08-01T17:13:44.386Z,62.90
2022-08-01T17:16:11.736Z,63.10
2022-08-01T17:18:38.728Z,64.40
2022-08-01T17:21:05.669Z,64.70
2022-08-01T17:23:33.652Z,64.40
2022-08-01T17:26:00.468Z,65.70
2022-08-01T17:28:27.704Z,68.20
2022-08-01T17:30:54.594Z,69.80
2022-08-01T17:33:21.611Z,68.90
2022-08-01T17:35:48.461Z,69.20
2022-08-01T17:38:15.307Z,69.30
2022-08-01T17:40:43.969Z,68.50
2022-08-01T17:43:10.969Z,68.70
2022-08-01T17:45:50.988Z,69.50
2022-08-01T17:48:21.703Z,70.80
2022-08-01T17:50:49.469Z,70.60
2022-08-01T17:53:20.751Z,67.80
2022-08-01T17:55:55.860Z,66.20
2022-08-01T17:58:33.654Z,63.80
2022-08-01T18:01:13.103Z,62.40
2022-08-01T18:03:41.302Z,60.30
2022-08-01T18:06:09.391Z,62.50
2022-08-01T18:08:36.214Z,64.70
2022-08-01T18:11:03.032Z,61.20
2022-08-01T18:13:30.016Z,58.70
2022-08-01T18:15:57.228Z,58.30
2022-08-01T18:18:33.016Z,58.20
2022-08-01T18:21:03.907Z,57.30
2022-08-01T18:23:30.886Z,57.20
2022-08-01T18:26:01.370Z,56.80
2022-08-01T18:28:35.332Z,57.30
2022-08-01T18:31:03.770Z,57.60
2022-08-01T18:33:30.773Z,55.30
2022-08-01T18:36:03.515Z,55.60
2022-08-01T18:38:33.227Z,56.60
2022-08-01T18:41:00.880Z,59.10
2022-08-01T18:43:27.998Z,60.60
2022-08-01T18:45:57.303Z,64.50
2022-08-01T18:48:24.732Z,68.40
2022-08-01T18:50:52.343Z,70.90
2022-08-01T18:53:20.733Z,72.60
2022-08-01T18:55:47.462Z,72.00
2022-08-01T18:58:14.346Z,72.40
2022-08-01T19:00:42.161Z,71.20
2022-08-01T19:03:09.789Z,70.40
2022-08-01T19:05:37.282Z,70.80
2022-08-01T19:08:07.515Z,69.40
2022-08-01T19:10:36.362Z,69.00
2022-08-01T19:13:03.624Z,69.70
2022-08-01T19:15:30.784Z,69.20
2022-08-01T19:17:57.569Z,67.40
2022-08-01T19:20:24.447Z,68.60
2022-08-01T19:22:51.327Z,72.00
2022-08-01T19:25:18.188Z,69.80
2022-08-01T19:27:48.256Z,69.00
2022-08-01T19:30:17.081Z,67.50
2022-08-01T19:32:46.042Z,66.20
2022-08-01T19:35:14.821Z,66.00
2022-08-01T19:37:52.550Z,65.20
2022-08-01T19:40:26.865Z,68.40
2022-08-01T19:42:56.872Z,66.90
2022-08-01T19:45:24.843Z,70.10
2022-08-01T19:47:57.133Z,70.90
2022-08-01T19:50:26.693Z,66.10
2022-08-01T19:52:55.432Z,65.70
2022-08-01T19:55:24.428Z,63.60
2022-08-01T20:00:40.905Z,65.70
2022-08-01T20:03:09.414Z,66.50
2022-08-01T20:05:37.319Z,67.90
2022-08-01T20:08:06.884Z,69.40
2022-08-01T20:10:35.738Z,69.90
2022-08-01T20:13:03.149Z,68.20
2022-08-01T20:15:30.435Z,67.00
2022-08-01T20:18:00.528Z,67.10
2022-08-01T20:20:27.721Z,67.80
2022-08-01T20:22:56.562Z,67.80
2022-08-01T20:25:33.519Z,67.80
2022-08-01T20:28:09.728Z,68.40
2022-08-01T20:30:37.508Z,68.20
2022-08-01T20:33:06.880Z,68.60
2022-08-01T20:35:51.005Z,68.60
2022-08-01T20:38:28.648Z,65.50
2022-08-01T20:40:58.797Z,59.90
2022-08-01T20:43:27.574Z,59.70
2022-08-01T20:45:55.363Z,59.20
2022-08-01T20:48:23.074Z,59.00
2022-08-01T20:51:08.490Z,59.50
2022-08-01T20:53:40.536Z,59.20
2022-08-01T20:56:14.494Z,60.30
2022-08-01T20:59:03.400Z,63.80
2022-08-01T21:01:35.332Z,68.60
2022-08-01T21:04:35.068Z,72.70
2022-08-01T21:07:04.812Z,76.10
2022-08-01T21:09:39.666Z,78.30
2022-08-01T21:12:12.432Z,81.20
2022-08-01T21:14:55.219Z,82.80
2022-08-01T21:17:46.810Z,83.10
2022-08-01T21:20:14.896Z,82.80
2022-08-01T21:22:53.917Z,83.30
2022-08-01T21:25:25.982Z,81.70
2022-08-01T21:27:53.602Z,80.20
2022-08-01T21:30:20.554Z,81.10
2022-08-01T21:32:48.964Z,81.40
2022-08-01T21:35:18.468Z,82.20
2022-08-01T21:37:52.374Z,82.80
2022-08-01T21:40:21.571Z,83.00
2022-08-01T21:42:49.951Z,80.20
2022-08-01T21:45:22.012Z,77.70
2022-08-01T21:47:50.130Z,75.80
2022-08-01T21:50:17.043Z,77.60
2022-08-01T21:52:52.496Z,80.50
2022-08-01T21:55:36.009Z,84.80
2022-08-01T21:58:27.753Z,84.60
2022-08-01T22:01:21.210Z,86.90
2022-08-01T22:03:51.299Z,86.70
2022-08-01T22:06:20.803Z,86.20
2022-08-01T22:08:56.347Z,89.40
2022-08-01T22:11:28.456Z,90.60
2022-08-01T22:14:00.122Z,91.30
2022-08-01T22:16:30.060Z,91.10
2022-08-01T22:18:57.748Z,91.10
2022-08-01T22:21:27.322Z,92.30
2022-08-01T22:23:54.369Z,92.90
2022-08-01T22:26:28.628Z,92.70
2022-08-01T22:28:55.916Z,93.10
2022-08-01T22:31:22.757Z,92.90
2022-08-01T22:33:50.090Z,92.80
2022-08-01T22:36:18.198Z,92.40
2022-08-01T22:38:44.936Z,91.50
2022-08-01T22:41:17.388Z,91.80
2022-08-01T22:43:54.071Z,91.90
2022-08-01T22:46:48.683Z,91.10
2022-08-01T22:49:15.437Z,91.10
2022-08-01T22:52:05.781Z,91.30
2022-08-01T22:54:38.627Z,91.10
2022-08-01T22:57:16.540Z,92.30
2022-08-01T22:59:52.318Z,92.60
2022-08-01T23:02:20.329Z,91.50
2022-08-01T23:04:48.974Z,91.00
2022-08-01T23:07:20.989Z,90.70
2022-08-01T23:09:54.643Z,91.00
2022-08-01T23:12:24.295Z,90.40
2022-08-01T23:14:54.747Z,90.20
2022-08-01T23:17:27.608Z,90.30
2022-08-01T23:20:00.719Z,90.30
2022-08-01T23:22:31.080Z,90.00
2022-08-01T23:25:04.703Z,90.90
2022-08-01T23:27:51.905Z,90.90
2022-08-01T23:30:30.777Z,90.40
2022-08-01T23:32:58.371Z,90.10
2022-08-01T23:35:26.314Z,90.10
2022-08-01T23:37:53.513Z,89.80
2022-08-01T23:40:24.747Z,88.00
2022-08-01T23:42:53.390Z,88.40
2022-08-01T23:45:21.509Z,88.20
2022-08-01T23:47:48.273Z,87.00
2022-08-01T23:50:15.013Z,87.60
2022-08-01T23:52:48.173Z,89.00
2022-08-01T23:55:16.546Z,87.10
2022-08-01T23:57:43.485Z,85.60
